Paulden, Arizona
Current Conditions -  °F | °C
As of 10:53 AM on Sunday 25 Jan 2015 (Local Time) from KPRC Reporting Station
Clear Clear  
Wind Chill: 52°   Ceiling: Unl
Heat Index: 52°   Visibility: 10mi
Dew Point: 18°   Wind: 6mph
Humidity: 26%   Direction: 10°N
Pressure: 30.28"   Gusts: NA
Location:  34.89°N, 112.47°W
Report Text: KPRC 251753Z 01005KT 10SM CLR 11/M08 A3028 RMK AO2 SLP231 T01111078 10111 21039 53002
Loading
Personal Weather Stations






























Interactive Weather Map New forecast layout! Learn more

10-Day Weather Forecast

Advertisements
Track Severe Weather on mobile